createdAt,value
2023-01-28T07:17:53.485Z,83.11
2023-01-28T07:20:24.683Z,80.94
2023-01-28T07:22:52.805Z,80.49
2023-01-28T07:25:21.105Z,80.18
2023-01-28T07:27:50.629Z,79.58
2023-01-28T07:30:20.317Z,79.60
2023-01-28T07:32:55.604Z,79.89
2023-01-28T07:35:23.993Z,79.91
2023-01-28T07:37:53.737Z,79.57
2023-01-28T07:40:24.215Z,79.36
2023-01-28T07:42:53.363Z,79.06
2023-01-28T07:45:24.744Z,78.74
2023-01-28T07:48:06.862Z,78.95
2023-01-28T07:50:36.415Z,79.05
2023-01-28T07:53:09.508Z,79.21
2023-01-28T07:55:37.969Z,79.54
2023-01-28T07:58:07.211Z,79.49
2023-01-28T08:00:36.459Z,79.19
2023-01-28T08:03:07.238Z,79.28
2023-01-28T08:05:41.635Z,79.07
2023-01-28T08:08:10.738Z,79.09
2023-01-28T08:10:39.209Z,78.96
2023-01-28T08:13:09.762Z,78.85
2023-01-28T08:15:39.119Z,78.38
2023-01-28T08:18:08.655Z,78.10
2023-01-28T08:20:37.132Z,77.74
2023-01-28T08:23:11.863Z,77.58
2023-01-28T08:25:40.229Z,77.48
2023-01-28T08:28:08.904Z,77.47
2023-01-28T08:30:38.330Z,77.50
2023-01-28T08:33:10.753Z,77.24
2023-01-28T08:35:45.818Z,77.11
2023-01-28T08:38:15.478Z,77.26
2023-01-28T08:40:45.054Z,77.51
2023-01-28T08:43:14.720Z,77.30
2023-01-28T08:46:12.250Z,77.72
2023-01-28T08:48:40.595Z,77.67
2023-01-28T08:51:09.370Z,76.83
2023-01-28T08:53:37.977Z,76.52
2023-01-28T08:56:06.337Z,76.36
2023-01-28T08:58:35.747Z,76.40
2023-01-28T09:01:07.112Z,77.06
2023-01-28T09:03:37.669Z,77.32
2023-01-28T09:06:09.403Z,77.43
2023-01-28T09:08:41.024Z,77.26
2023-01-28T09:11:11.616Z,76.53
2023-01-28T09:13:40.174Z,75.70
2023-01-28T09:16:09.287Z,75.85
2023-01-28T09:19:04.770Z,76.03
2023-01-28T09:21:34.231Z,75.99
2023-01-28T09:24:29.008Z,76.28
2023-01-28T09:26:59.501Z,76.25
2023-01-28T09:29:31.085Z,76.29
2023-01-28T09:31:59.245Z,76.08
2023-01-28T09:34:27.619Z,76.09
2023-01-28T09:36:55.936Z,76.07
2023-01-28T09:39:25.797Z,75.35
2023-01-28T09:42:13.949Z,74.73
2023-01-28T09:45:05.444Z,74.85
2023-01-28T09:47:38.026Z,75.48
2023-01-28T09:50:12.660Z,75.84
2023-01-28T09:52:45.373Z,75.86
2023-01-28T09:55:20.899Z,75.88
2023-01-28T09:57:52.799Z,75.73
2023-01-28T10:00:41.404Z,75.74
2023-01-28T10:03:31.698Z,75.44
2023-01-28T13:25:55.000Z,81.52
2023-01-28T13:28:31.575Z,80.07
2023-01-28T13:31:09.100Z,80.22
2023-01-28T13:33:38.935Z,79.74
2023-01-28T13:36:49.087Z,79.19
2023-01-28T13:39:23.543Z,78.85
2023-01-28T13:41:53.846Z,78.77
2023-01-28T13:44:29.820Z,78.49
2023-01-28T13:46:59.309Z,78.39
2023-01-28T13:49:34.432Z,78.23
2023-01-28T13:52:12.607Z,77.94
2023-01-28T13:54:56.565Z,77.65
2023-01-28T13:57:39.045Z,77.75
2023-01-28T14:00:28.031Z,77.39
2023-01-28T14:02:59.293Z,77.43
2023-01-28T14:05:46.647Z,77.60
2023-01-28T14:08:27.322Z,77.68
2023-01-28T14:11:12.158Z,77.69
2023-01-28T14:14:00.479Z,77.48
2023-01-28T14:16:33.682Z,77.35
2023-01-28T14:19:02.158Z,77.33
2023-01-28T14:21:33.715Z,77.29
2023-01-28T14:24:02.591Z,77.52
2023-01-28T14:26:43.491Z,77.52
2023-01-28T14:29:33.720Z,77.15
2023-01-28T14:32:06.575Z,76.92
2023-01-28T14:34:35.663Z,76.83
2023-01-28T14:37:08.792Z,76.96
2023-01-28T14:40:04.647Z,77.08
2023-01-28T14:42:41.583Z,77.09
2023-01-28T14:45:15.540Z,77.04
2023-01-28T14:47:49.743Z,76.80
2023-01-28T14:50:32.872Z,76.85
2023-01-28T14:53:13.370Z,76.92
2023-01-28T14:55:46.839Z,76.78
2023-01-28T14:58:23.129Z,76.85
2023-01-28T15:00:56.025Z,76.71
2023-01-28T15:03:25.712Z,76.73
2023-01-28T15:06:08.786Z,76.87
2023-01-28T15:25:05.294Z,74.35
2023-01-28T15:27:34.451Z,73.62
2023-01-28T15:30:23.764Z,73.78
2023-01-28T15:33:06.983Z,74.02
2023-01-28T15:35:36.591Z,74.21
2023-01-28T15:38:05.548Z,74.35
2023-01-28T15:40:41.674Z,74.58
2023-01-28T15:43:23.390Z,74.85
2023-01-28T15:45:58.206Z,75.01
2023-01-28T15:48:31.121Z,75.13
2023-01-28T15:51:08.061Z,75.47
2023-01-28T15:53:52.721Z,75.74
2023-01-28T15:56:25.627Z,75.90
2023-01-28T15:58:56.373Z,75.91
2023-01-28T16:01:34.712Z,76.00
2023-01-28T16:04:08.999Z,76.02
2023-01-28T19:29:56.326Z,83.89
2023-01-28T19:32:28.452Z,82.55
2023-01-28T19:34:59.626Z,82.40
2023-01-28T19:37:27.896Z,82.05
2023-01-28T19:39:57.961Z,81.61
2023-01-28T19:42:26.339Z,81.43
2023-01-28T19:45:15.030Z,81.16
2023-01-28T19:47:44.094Z,81.07
2023-01-28T19:50:15.459Z,80.95
2023-01-28T19:52:44.376Z,80.62
2023-01-28T19:55:15.184Z,80.43
2023-01-28T19:57:45.114Z,80.21
2023-01-28T20:00:15.966Z,80.01
2023-01-28T20:02:45.746Z,80.02
2023-01-28T20:05:20.037Z,80.03
2023-01-28T20:07:48.136Z,79.98
2023-01-28T20:10:16.831Z,79.83
2023-01-28T20:12:45.456Z,79.79
2023-01-28T20:15:14.113Z,79.60
2023-01-28T20:17:42.989Z,79.59
2023-01-28T20:20:14.964Z,79.52
2023-01-28T20:22:43.863Z,79.45
2023-01-28T20:25:18.209Z,79.48
2023-01-28T20:27:47.541Z,79.50
2023-01-28T20:30:16.499Z,79.51
2023-01-28T20:32:45.242Z,79.32
2023-01-28T20:35:14.296Z,79.23
2023-01-28T20:37:44.684Z,79.19
2023-01-28T20:40:14.163Z,79.27
2023-01-28T20:42:46.739Z,79.20
2023-01-28T20:45:15.939Z,79.06
2023-01-28T20:47:45.336Z,79.05
2023-01-28T20:50:15.825Z,78.93
2023-01-28T20:52:44.391Z,78.91
2023-01-28T20:55:16.200Z,79.05
2023-01-28T20:57:44.876Z,78.97
2023-01-28T21:00:14.400Z,79.00
2023-01-28T21:02:46.408Z,79.17
2023-01-28T21:05:17.900Z,79.02
2023-01-28T21:07:47.262Z,78.84
2023-01-28T21:10:16.382Z,78.68
2023-01-28T21:12:53.172Z,78.77
2023-01-28T21:15:22.207Z,78.75
2023-01-28T21:17:54.046Z,78.77
2023-01-28T21:20:22.353Z,78.90
2023-01-28T21:22:52.330Z,78.85
2023-01-28T21:25:21.611Z,78.68
2023-01-28T21:27:50.138Z,78.61
2023-01-28T21:30:20.155Z,78.77
2023-01-28T21:32:48.731Z,78.83
2023-01-28T21:35:16.908Z,78.84
2023-01-28T21:37:46.314Z,78.98
2023-01-28T21:40:15.008Z,78.96
2023-01-28T21:42:44.747Z,78.74
2023-01-28T21:45:12.915Z,78.76
2023-01-28T21:47:41.044Z,78.81
2023-01-28T21:50:22.811Z,78.92
2023-01-28T21:52:51.901Z,78.96
2023-01-28T21:55:20.217Z,78.80
2023-01-28T21:57:48.428Z,78.70
2023-01-28T22:00:21.924Z,78.63
2023-01-28T23:25:31.078Z,81.75
2023-01-28T23:28:01.288Z,80.51
2023-01-28T23:30:30.364Z,80.32
2023-01-28T23:32:58.887Z,80.13
2023-01-28T23:35:27.668Z,79.80
2023-01-28T23:37:56.753Z,79.47
2023-01-28T23:40:27.256Z,79.27
2023-01-28T23:42:55.840Z,79.26
2023-01-28T23:45:25.176Z,79.07
2023-01-28T23:47:53.412Z,79.09
2023-01-28T23:50:23.020Z,78.95
2023-01-28T23:57:38.722Z,78.58
